createdAt,value
2017-05-16T00:01:56.779Z,12.30
2017-05-16T00:04:25.282Z,12.20
2017-05-16T00:06:53.822Z,12.10
2017-05-16T00:09:22.329Z,12.00
2017-05-16T00:11:50.834Z,11.90
2017-05-16T00:14:19.381Z,12.00
2017-05-16T00:16:47.884Z,12.00
2017-05-16T00:19:16.395Z,12.00
2017-05-16T00:21:44.935Z,12.00
2017-05-16T00:24:13.444Z,12.10
2017-05-16T00:26:41.942Z,12.20
2017-05-16T00:29:10.504Z,12.30
2017-05-16T00:31:39.006Z,12.40
2017-05-16T00:34:07.531Z,12.50
2017-05-16T00:36:36.082Z,12.70
2017-05-16T00:39:04.595Z,12.80
2017-05-16T00:41:33.097Z,12.90
2017-05-16T00:44:01.647Z,13.00
2017-05-16T00:46:30.152Z,13.20
2017-05-16T00:48:58.660Z,13.20
2017-05-16T00:51:27.195Z,13.30
2017-05-16T00:53:55.702Z,13.40
2017-05-16T00:56:24.281Z,13.40
2017-05-16T00:58:52.783Z,13.40
2017-05-16T01:01:21.283Z,13.50
2017-05-16T01:03:49.836Z,13.40
2017-05-16T01:06:18.340Z,13.40
2017-05-16T01:08:46.846Z,13.40
2017-05-16T01:11:15.399Z,13.40
2017-05-16T01:13:43.908Z,13.40
2017-05-16T01:16:12.416Z,13.50
2017-05-16T01:18:40.959Z,13.70
2017-05-16T01:21:09.464Z,13.70
2017-05-16T01:23:37.973Z,13.70
2017-05-16T01:26:06.516Z,13.80
2017-05-16T01:28:35.022Z,13.80
2017-05-16T01:31:03.572Z,13.80
2017-05-16T01:33:32.072Z,13.80
2017-05-16T01:36:00.581Z,13.80
2017-05-16T01:38:29.126Z,13.90
2017-05-16T01:40:57.643Z,13.90
2017-05-16T01:43:26.141Z,13.90
2017-05-16T01:45:54.677Z,13.90
2017-05-16T01:48:23.225Z,13.90
2017-05-16T01:50:51.791Z,14.00
2017-05-16T01:53:20.294Z,14.00
2017-05-16T01:55:48.846Z,14.00
2017-05-16T01:58:17.349Z,14.00
2017-05-16T02:00:45.880Z,14.10
2017-05-16T02:03:14.428Z,14.10
2017-05-16T02:05:42.937Z,14.00
2017-05-16T02:08:11.436Z,13.90
2017-05-16T02:10:39.980Z,13.90
2017-05-16T02:13:08.520Z,13.90
2017-05-16T02:15:37.031Z,13.90
2017-05-16T02:18:05.531Z,13.90
2017-05-16T02:20:34.076Z,13.90
2017-05-16T02:23:02.576Z,13.80
2017-05-16T02:25:31.076Z,13.80
2017-05-16T02:27:59.621Z,13.80
2017-05-16T02:30:28.129Z,13.70
2017-05-16T02:32:56.627Z,13.50
2017-05-16T02:35:25.168Z,13.50
2017-05-16T02:37:53.673Z,13.40
2017-05-16T02:40:22.222Z,13.40
2017-05-16T02:42:50.723Z,13.30
2017-05-16T02:45:19.230Z,13.30
2017-05-16T02:47:47.780Z,13.30
2017-05-16T02:50:16.283Z,13.30
2017-05-16T02:52:44.800Z,13.30
2017-05-16T02:55:13.349Z,13.20
2017-05-16T02:57:41.853Z,13.20
2017-05-16T03:00:10.357Z,13.10
2017-05-16T03:02:38.902Z,13.00
2017-05-16T03:05:07.412Z,12.90
2017-05-16T03:07:35.913Z,12.90
2017-05-16T03:10:04.463Z,12.90
2017-05-16T03:12:32.967Z,12.80
2017-05-16T03:15:01.508Z,12.90
2017-05-16T03:17:30.012Z,12.90
2017-05-16T03:19:58.524Z,12.80
2017-05-16T03:22:27.072Z,12.80
2017-05-16T03:24:55.581Z,12.80
2017-05-16T03:27:24.085Z,12.80
2017-05-16T03:29:52.628Z,12.80
2017-05-16T03:32:21.131Z,12.70
2017-05-16T03:34:49.641Z,12.80
2017-05-16T03:37:18.220Z,12.90
2017-05-16T03:39:46.735Z,13.10
2017-05-16T03:42:15.244Z,13.50
2017-05-16T03:44:43.830Z,13.90
2017-05-16T03:47:12.339Z,14.00
2017-05-16T03:49:40.842Z,14.10
2017-05-16T03:52:09.430Z,14.10
2017-05-16T03:54:37.932Z,14.60
2017-05-16T03:57:06.431Z,15.50
2017-05-16T03:59:34.976Z,16.30
2017-05-16T04:02:03.487Z,17.00
2017-05-16T04:04:31.998Z,17.40
2017-05-16T04:07:00.572Z,17.50
2017-05-16T04:09:29.092Z,17.80
2017-05-16T04:11:57.599Z,18.00
2017-05-16T04:14:26.262Z,17.70
2017-05-16T04:16:54.767Z,17.20
2017-05-16T04:19:23.268Z,16.50
2017-05-16T04:21:51.813Z,16.40
2017-05-16T04:24:20.317Z,16.30
2017-05-16T04:26:48.823Z,16.40
2017-05-16T04:29:17.369Z,16.70
2017-05-16T04:31:45.876Z,17.40
2017-05-16T04:34:14.384Z,18.10
2017-05-16T04:36:42.931Z,18.60
2017-05-16T04:39:11.433Z,18.90
2017-05-16T04:41:39.940Z,18.40
2017-05-16T04:44:08.484Z,18.20
2017-05-16T04:46:36.988Z,18.10
2017-05-16T04:49:05.496Z,18.10
2017-05-16T04:51:34.043Z,18.40
2017-05-16T04:54:02.545Z,19.00
2017-05-16T04:56:31.094Z,19.40
2017-05-16T04:58:59.677Z,19.60
2017-05-16T05:01:28.188Z,19.80
2017-05-16T05:03:56.691Z,20.10
2017-05-16T05:06:25.231Z,20.10
2017-05-16T05:08:53.746Z,20.60
2017-05-16T05:11:22.248Z,20.60
2017-05-16T05:13:50.792Z,21.00
2017-05-16T05:16:19.295Z,22.20
2017-05-16T05:18:47.800Z,22.80
2017-05-16T05:21:16.347Z,23.40
2017-05-16T05:23:44.856Z,24.20
2017-05-16T05:26:13.364Z,24.60
2017-05-16T05:28:41.919Z,25.00
2017-05-16T05:31:10.455Z,25.40
2017-05-16T05:33:38.959Z,25.80
2017-05-16T05:36:07.502Z,25.70
2017-05-16T05:38:36.009Z,25.50
2017-05-16T05:41:04.522Z,25.00
2017-05-16T05:43:33.071Z,24.30
2017-05-16T05:46:01.573Z,24.30
2017-05-16T05:48:30.077Z,24.90
2017-05-16T05:50:58.625Z,25.00
2017-05-16T05:53:27.140Z,25.70
2017-05-16T05:55:55.639Z,26.80
2017-05-16T05:58:24.189Z,26.80
2017-05-16T06:00:52.694Z,27.20
2017-05-16T06:03:21.258Z,28.70
2017-05-16T06:05:49.811Z,30.30
2017-05-16T06:08:18.345Z,30.70
2017-05-16T06:10:46.850Z,31.20
2017-05-16T06:13:15.396Z,31.40
2017-05-16T06:15:43.920Z,31.50
2017-05-16T06:18:12.427Z,31.10
2017-05-16T06:20:40.988Z,30.80
2017-05-16T06:23:09.499Z,30.20
2017-05-16T06:25:38.005Z,30.30
2017-05-16T06:28:06.555Z,30.70
2017-05-16T06:30:35.059Z,31.00
2017-05-16T06:33:03.560Z,32.00
2017-05-16T06:35:32.103Z,31.80
2017-05-16T06:38:00.608Z,31.70
2017-05-16T06:40:29.109Z,31.40
2017-05-16T06:42:57.653Z,31.80
2017-05-16T06:45:26.156Z,32.60
2017-05-16T06:47:54.679Z,33.10
2017-05-16T06:50:23.227Z,33.00
2017-05-16T06:52:51.743Z,33.30
2017-05-16T06:55:20.253Z,34.50
2017-05-16T06:57:48.809Z,35.00
2017-05-16T07:00:17.315Z,35.40
2017-05-16T07:02:45.826Z,33.90
2017-05-16T07:05:14.627Z,32.80
2017-05-16T07:07:43.135Z,31.40
2017-05-16T07:10:11.648Z,30.60
2017-05-16T07:12:40.199Z,30.70
2017-05-16T07:15:08.700Z,31.30
2017-05-16T07:17:37.204Z,32.20
2017-05-16T07:20:05.751Z,33.80
2017-05-16T07:22:34.268Z,34.70
2017-05-16T07:25:02.779Z,34.20
2017-05-16T07:27:31.352Z,32.80
2017-05-16T07:29:59.864Z,32.10
2017-05-16T07:32:28.369Z,32.40
2017-05-16T07:34:56.920Z,32.10
2017-05-16T07:37:25.441Z,31.00
2017-05-16T07:39:53.946Z,30.90
2017-05-16T07:42:22.491Z,30.10
2017-05-16T07:44:50.996Z,29.90
2017-05-16T07:47:19.513Z,29.80
2017-05-16T07:49:48.054Z,29.90
2017-05-16T07:52:16.555Z,30.60
2017-05-16T07:54:45.055Z,30.10
2017-05-16T07:57:13.621Z,28.90
2017-05-16T07:59:42.129Z,28.90
2017-05-16T08:02:10.636Z,27.90
2017-05-16T08:04:39.184Z,27.90
2017-05-16T08:07:07.772Z,27.80
2017-05-16T08:09:36.276Z,27.50
2017-05-16T08:12:04.816Z,28.10
2017-05-16T08:14:33.316Z,28.20
2017-05-16T08:17:01.818Z,27.60
2017-05-16T08:19:30.356Z,26.50
2017-05-16T08:21:58.856Z,25.90
2017-05-16T08:24:27.352Z,26.40
2017-05-16T08:26:55.893Z,27.10
2017-05-16T08:29:24.393Z,29.10
2017-05-16T08:31:52.897Z,31.10
2017-05-16T08:34:21.441Z,31.50
2017-05-16T08:36:49.938Z,30.80
2017-05-16T08:39:18.439Z,30.50
2017-05-16T08:41:46.981Z,28.10
2017-05-16T08:44:15.500Z,27.40
2017-05-16T08:46:44.010Z,28.10
2017-05-16T08:49:12.551Z,29.10
2017-05-16T08:51:41.048Z,30.70
2017-05-16T08:54:09.553Z,31.60
2017-05-16T08:56:38.097Z,32.10
2017-05-16T08:59:06.601Z,31.80
2017-05-16T09:01:35.104Z,32.20
2017-05-16T09:04:03.637Z,32.00
2017-05-16T09:06:32.139Z,30.00
2017-05-16T09:09:00.649Z,28.30
2017-05-16T09:11:29.187Z,29.00
2017-05-16T09:13:57.684Z,28.60
2017-05-16T09:16:26.175Z,27.80
2017-05-16T09:18:54.712Z,28.40
2017-05-16T09:21:23.219Z,29.60
2017-05-16T09:23:51.712Z,28.40
2017-05-16T09:26:20.265Z,26.00
2017-05-16T09:28:48.765Z,24.30
2017-05-16T09:31:17.264Z,24.20
2017-05-16T09:33:45.933Z,24.40
2017-05-16T09:36:14.431Z,24.20
2017-05-16T09:38:42.932Z,23.10
2017-05-16T09:41:11.492Z,22.70
2017-05-16T09:43:39.984Z,22.30
2017-05-16T09:46:08.483Z,22.30
2017-05-16T09:48:37.045Z,22.50
2017-05-16T09:51:05.544Z,22.60
2017-05-16T09:53:34.040Z,22.80
2017-05-16T09:56:02.581Z,23.20
2017-05-16T09:58:31.084Z,23.70
2017-05-16T10:00:59.583Z,23.60
2017-05-16T10:03:28.124Z,23.50
2017-05-16T10:05:56.621Z,22.60
2017-05-16T10:08:25.124Z,22.40
2017-05-16T10:10:53.665Z,22.80
2017-05-16T10:13:22.167Z,23.30
2017-05-16T10:15:50.664Z,24.00
2017-05-16T10:18:19.200Z,24.50
2017-05-16T10:20:47.700Z,24.50
2017-05-16T10:23:16.196Z,24.00
2017-05-16T10:25:44.728Z,24.10
2017-05-16T10:28:13.229Z,24.10
2017-05-16T10:30:41.730Z,23.40
2017-05-16T10:33:10.265Z,23.10
2017-05-16T10:38:06.222Z,22.00
2017-05-16T10:40:34.774Z,22.20
2017-05-16T10:43:03.271Z,22.30
2017-05-16T10:45:31.780Z,22.30
2017-05-16T10:48:00.319Z,23.00
2017-05-16T10:50:28.823Z,23.40
2017-05-16T10:52:57.320Z,23.70
2017-05-16T10:55:26.068Z,23.70
2017-05-16T10:57:54.579Z,23.60
2017-05-16T11:00:23.080Z,23.50
2017-05-16T11:02:51.625Z,23.10
2017-05-16T11:05:20.129Z,22.80
2017-05-16T11:07:48.636Z,22.40
2017-05-16T11:10:17.172Z,22.60
2017-05-16T11:12:45.666Z,22.60
2017-05-16T11:15:14.166Z,22.70
2017-05-16T11:17:42.707Z,22.90
2017-05-16T11:20:11.206Z,22.80
2017-05-16T11:22:39.704Z,23.40
2017-05-16T11:25:08.240Z,23.50
2017-05-16T11:27:36.744Z,23.30
2017-05-16T11:30:05.265Z,23.60
2017-05-16T11:32:33.799Z,23.40
2017-05-16T11:35:02.299Z,23.70
2017-05-16T11:37:30.805Z,23.30
2017-05-16T11:39:59.340Z,22.90
2017-05-16T11:42:27.843Z,22.90
2017-05-16T11:44:56.338Z,22.50
2017-05-16T11:47:24.880Z,22.10
2017-05-16T11:49:53.372Z,21.80
2017-05-16T11:52:21.873Z,22.00
2017-05-16T11:54:50.413Z,21.60
2017-05-16T11:57:18.910Z,21.40
2017-05-16T11:59:47.410Z,21.30
2017-05-16T12:02:15.944Z,21.70
2017-05-16T12:04:44.441Z,21.80
2017-05-16T12:07:12.948Z,22.20
2017-05-16T12:09:41.487Z,22.30
2017-05-16T12:12:09.984Z,22.50
2017-05-16T12:14:38.485Z,22.60
2017-05-16T12:17:07.018Z,22.80
2017-05-16T12:19:35.517Z,22.80
2017-05-16T12:22:04.022Z,23.10
2017-05-16T12:24:32.571Z,22.70
2017-05-16T12:27:01.075Z,23.00
2017-05-16T12:29:29.574Z,23.30
2017-05-16T12:31:58.111Z,22.80
2017-05-16T12:34:26.610Z,22.60
2017-05-16T12:36:55.102Z,22.40
2017-05-16T12:39:23.642Z,22.60
2017-05-16T12:41:52.135Z,22.70
2017-05-16T12:44:20.641Z,22.70
2017-05-16T12:46:49.175Z,22.50
2017-05-16T12:49:17.673Z,22.30
2017-05-16T12:51:46.175Z,22.10
2017-05-16T12:54:14.725Z,22.00
2017-05-16T12:56:43.225Z,22.10
2017-05-16T12:59:11.734Z,21.90
2017-05-16T13:01:40.280Z,21.90
2017-05-16T13:04:08.776Z,21.90
2017-05-16T13:06:37.271Z,22.30
2017-05-16T13:09:05.804Z,22.70
2017-05-16T13:11:34.358Z,23.20
2017-05-16T13:14:02.856Z,23.40
2017-05-16T13:16:31.390Z,23.70
2017-05-16T13:18:59.907Z,23.60
2017-05-16T13:21:28.399Z,23.70
2017-05-16T13:23:56.940Z,23.80
2017-05-16T13:26:25.435Z,24.10
2017-05-16T13:28:53.933Z,24.30
2017-05-16T13:31:22.478Z,23.60
2017-05-16T13:33:50.977Z,23.30
2017-05-16T13:36:19.502Z,23.10
2017-05-16T13:38:48.051Z,22.60
2017-05-16T13:41:16.547Z,22.10
2017-05-16T13:43:45.041Z,22.00
2017-05-16T13:46:13.575Z,22.10
2017-05-16T13:48:42.074Z,22.30
2017-05-16T13:51:10.581Z,21.60
2017-05-16T13:53:39.124Z,21.30
2017-05-16T13:56:07.627Z,21.50
2017-05-16T13:58:36.121Z,21.30
2017-05-16T14:01:04.665Z,21.20
2017-05-16T14:03:33.169Z,21.00
2017-05-16T14:06:01.659Z,21.10
2017-05-16T14:08:30.199Z,20.90
2017-05-16T14:10:58.703Z,21.10
2017-05-16T14:13:27.199Z,21.40
2017-05-16T14:15:55.741Z,21.30
2017-05-16T14:18:24.236Z,21.60
2017-05-16T14:20:52.732Z,22.10
2017-05-16T14:23:21.269Z,22.40
2017-05-16T14:25:49.769Z,22.80
2017-05-16T14:28:18.272Z,22.40
2017-05-16T14:30:46.807Z,22.00
2017-05-16T14:33:15.299Z,21.70
2017-05-16T14:35:43.796Z,21.70
2017-05-16T14:38:12.337Z,22.20
2017-05-16T14:40:40.843Z,22.30
2017-05-16T14:43:09.363Z,22.30
2017-05-16T14:45:37.904Z,22.40
2017-05-16T14:48:06.401Z,22.50
2017-05-16T14:50:34.902Z,22.10
2017-05-16T14:53:03.440Z,21.60
2017-05-16T14:55:31.944Z,21.30
2017-05-16T14:58:00.443Z,21.20
2017-05-16T15:00:28.980Z,21.30
2017-05-16T15:02:57.476Z,21.30
2017-05-16T15:05:25.974Z,21.10
2017-05-16T15:07:54.539Z,21.10
2017-05-16T15:10:23.035Z,21.30
2017-05-16T15:12:51.537Z,21.40
2017-05-16T15:15:20.081Z,21.40
2017-05-16T15:17:48.579Z,21.30
2017-05-16T15:20:17.104Z,21.10
2017-05-16T15:22:45.641Z,20.90
2017-05-16T15:25:14.143Z,20.50
2017-05-16T15:27:42.655Z,20.10
2017-05-16T15:30:11.206Z,20.20
2017-05-16T15:32:39.703Z,20.30
2017-05-16T15:35:08.205Z,20.20
2017-05-16T15:37:36.745Z,20.20
2017-05-16T15:40:05.252Z,20.20
2017-05-16T15:42:33.749Z,20.00
2017-05-16T15:45:02.304Z,20.00
2017-05-16T15:47:30.803Z,20.10
2017-05-16T15:49:59.301Z,20.20
2017-05-16T15:52:27.844Z,20.20
2017-05-16T15:54:56.347Z,20.20
2017-05-16T15:57:24.851Z,20.20
2017-05-16T15:59:53.399Z,20.10
2017-05-16T16:02:21.900Z,20.00
2017-05-16T16:04:50.400Z,20.00
2017-05-16T16:07:18.943Z,20.00
2017-05-16T16:09:47.440Z,19.70
2017-05-16T16:12:15.936Z,19.60
2017-05-16T16:14:44.475Z,19.50
2017-05-16T16:17:12.984Z,19.40
2017-05-16T16:19:41.482Z,19.30
2017-05-16T16:22:10.052Z,19.30
2017-05-16T16:24:38.546Z,19.40
2017-05-16T16:27:07.044Z,19.30
2017-05-16T16:29:35.588Z,19.30
2017-05-16T16:32:04.087Z,19.30
2017-05-16T16:34:32.590Z,19.30
2017-05-16T16:37:01.125Z,19.30
2017-05-16T16:39:29.626Z,19.20
2017-05-16T16:41:58.120Z,19.20
2017-05-16T16:44:26.668Z,19.30
2017-05-16T16:46:55.170Z,19.20
2017-05-16T16:49:23.670Z,19.20
2017-05-16T16:51:51.445Z,19.20
2017-05-16T16:54:20.049Z,19.10
2017-05-16T16:56:48.560Z,19.00
2017-05-16T16:59:17.102Z,18.90
2017-05-16T17:01:45.604Z,18.80
2017-05-16T17:04:14.105Z,18.80
2017-05-16T17:06:42.685Z,18.90
2017-05-16T17:09:11.180Z,18.90
2017-05-16T17:11:39.680Z,19.00
2017-05-16T17:14:08.227Z,18.90
2017-05-16T17:16:36.728Z,18.80
2017-05-16T17:19:05.254Z,18.70
2017-05-16T17:21:33.791Z,18.70
2017-05-16T17:24:02.288Z,18.60
2017-05-16T17:26:30.784Z,18.60
2017-05-16T17:28:59.322Z,18.50
2017-05-16T17:31:27.823Z,18.50
2017-05-16T17:33:56.323Z,18.40
2017-05-16T17:36:24.864Z,18.40
2017-05-16T17:38:53.510Z,18.30
2017-05-16T17:41:22.015Z,18.30
2017-05-16T17:43:50.555Z,18.20
2017-05-16T17:46:19.063Z,18.10
2017-05-16T17:48:47.880Z,18.10
2017-05-16T17:51:16.437Z,18.00
2017-05-16T17:53:44.935Z,17.90
2017-05-16T17:56:13.432Z,17.90
2017-05-16T17:58:41.980Z,17.80
2017-05-16T18:01:10.476Z,17.70
2017-05-16T18:03:38.974Z,17.70
2017-05-16T18:06:07.512Z,17.60
2017-05-16T18:08:36.008Z,17.50
2017-05-16T18:11:04.517Z,17.50
2017-05-16T18:13:33.055Z,17.40
2017-05-16T18:16:01.551Z,17.40
2017-05-16T18:18:30.052Z,17.30
2017-05-16T18:20:58.604Z,17.30
2017-05-16T18:23:27.136Z,17.20
2017-05-16T18:25:55.654Z,17.10
2017-05-16T18:28:24.211Z,17.00
2017-05-16T18:30:52.769Z,16.90
2017-05-16T18:33:21.381Z,16.80
2017-05-16T18:35:50.060Z,16.80
2017-05-16T18:38:18.561Z,16.70
2017-05-16T18:40:47.179Z,16.70
2017-05-16T18:43:15.722Z,16.60
2017-05-16T18:45:44.220Z,16.50
2017-05-16T18:48:12.719Z,16.40
2017-05-16T18:50:41.898Z,16.30
2017-05-16T18:55:48.012Z,16.20
2017-05-16T18:58:16.504Z,16.20
2017-05-16T19:00:45.199Z,16.10
2017-05-16T19:03:13.747Z,16.20
2017-05-16T19:05:42.256Z,16.10
2017-05-16T19:08:10.983Z,16.00
2017-05-16T19:10:39.614Z,15.90
2017-05-16T19:13:08.145Z,15.80
2017-05-16T19:15:36.650Z,15.70
2017-05-16T19:18:05.200Z,15.70
2017-05-16T19:20:33.717Z,15.70
2017-05-16T19:23:02.401Z,15.60
2017-05-16T19:25:31.806Z,15.40
2017-05-16T19:28:00.427Z,15.40
2017-05-16T19:30:28.945Z,15.30
2017-05-16T19:32:57.488Z,15.30
2017-05-16T19:35:26.054Z,15.30
2017-05-16T19:37:54.567Z,15.20
2017-05-16T19:40:23.236Z,15.10
2017-05-16T19:42:51.870Z,15.10
2017-05-16T19:45:20.379Z,15.00
2017-05-16T19:47:48.924Z,14.90
2017-05-16T19:50:17.425Z,14.90
2017-05-16T19:52:45.930Z,14.80
2017-05-16T19:55:14.476Z,14.70
2017-05-16T19:57:42.972Z,14.70
2017-05-16T20:00:11.475Z,14.60
2017-05-16T20:02:40.014Z,14.50
2017-05-16T20:05:08.525Z,14.40
2017-05-16T20:07:37.056Z,14.40
2017-05-16T20:10:05.609Z,14.30
2017-05-16T20:12:34.121Z,14.30
2017-05-16T20:15:02.653Z,14.30
2017-05-16T20:17:31.197Z,14.20
2017-05-16T20:19:59.695Z,14.10
2017-05-16T20:22:28.200Z,14.00
2017-05-16T20:24:56.743Z,14.00
2017-05-16T20:27:25.249Z,14.00
2017-05-16T20:29:53.756Z,13.90
2017-05-16T20:32:22.321Z,13.80
2017-05-16T20:34:50.820Z,13.80
2017-05-16T20:37:19.356Z,13.70
2017-05-16T20:39:47.899Z,13.70
2017-05-16T20:42:16.397Z,13.60
2017-05-16T20:44:44.904Z,13.60
2017-05-16T20:47:13.593Z,13.60
2017-05-16T20:49:42.096Z,13.50
2017-05-16T20:52:10.620Z,13.50
2017-05-16T20:54:39.163Z,13.40
2017-05-16T20:57:07.663Z,13.30
2017-05-16T20:59:36.159Z,13.30
2017-05-16T21:02:04.705Z,13.30
2017-05-16T21:04:33.209Z,13.30
2017-05-16T21:07:01.733Z,13.30
2017-05-16T21:09:30.275Z,13.30
2017-05-16T21:11:58.776Z,13.30
2017-05-16T21:14:27.272Z,13.20
2017-05-16T21:16:55.821Z,13.20
2017-05-16T21:19:24.321Z,13.10
2017-05-16T21:21:52.825Z,13.20
2017-05-16T21:24:21.395Z,13.30
2017-05-16T21:26:49.891Z,13.20
2017-05-16T21:29:18.394Z,13.20
2017-05-16T21:31:46.929Z,13.50
2017-05-16T21:34:15.429Z,13.40
2017-05-16T21:36:43.931Z,13.30
2017-05-16T21:39:12.467Z,13.20
2017-05-16T21:41:40.967Z,13.10
2017-05-16T21:44:09.458Z,13.00
2017-05-16T21:46:38.000Z,13.00
2017-05-16T21:49:06.512Z,12.90
2017-05-16T21:51:35.012Z,12.80
2017-05-16T21:54:03.560Z,12.70
2017-05-16T21:56:32.067Z,12.70
2017-05-16T21:59:00.605Z,12.60
2017-05-16T22:01:29.153Z,12.50
2017-05-16T22:03:57.659Z,12.40
2017-05-16T22:06:26.160Z,12.30
2017-05-16T22:08:54.701Z,12.20
2017-05-16T22:11:23.203Z,12.10
2017-05-16T22:13:51.700Z,12.10
2017-05-16T22:16:20.239Z,12.10
2017-05-16T22:18:48.751Z,12.00
2017-05-16T22:21:17.256Z,11.90
2017-05-16T22:23:45.796Z,11.90
2017-05-16T22:26:14.295Z,11.90
2017-05-16T22:28:42.796Z,11.70
2017-05-16T22:31:11.348Z,11.70
2017-05-16T22:33:39.852Z,11.50
2017-05-16T22:36:08.361Z,11.50
2017-05-16T22:38:36.915Z,11.40
2017-05-16T22:41:05.456Z,11.40
2017-05-16T22:43:33.956Z,11.30
2017-05-16T22:46:02.505Z,11.30
2017-05-16T22:48:31.011Z,11.20
2017-05-16T22:50:59.511Z,11.10
2017-05-16T22:53:28.060Z,11.00
2017-05-16T22:55:56.563Z,11.00
2017-05-16T22:58:25.068Z,10.90
2017-05-16T23:00:53.624Z,10.90
2017-05-16T23:03:22.130Z,10.80
2017-05-16T23:05:50.649Z,10.80
2017-05-16T23:08:19.204Z,10.80
2017-05-16T23:10:47.715Z,10.70
2017-05-16T23:13:16.220Z,10.70
2017-05-16T23:15:44.768Z,10.80
2017-05-16T23:18:13.273Z,10.80
2017-05-16T23:20:41.776Z,10.70
2017-05-16T23:23:10.341Z,10.70
2017-05-16T23:25:38.853Z,10.70
2017-05-16T23:28:07.356Z,10.60
2017-05-16T23:30:35.900Z,10.60
2017-05-16T23:33:04.412Z,10.60
2017-05-16T23:35:32.911Z,10.50
2017-05-16T23:38:01.456Z,10.50
2017-05-16T23:40:29.960Z,10.50
2017-05-16T23:42:58.469Z,10.50
2017-05-16T23:45:27.016Z,10.40
2017-05-16T23:47:55.511Z,10.40
2017-05-16T23:50:24.011Z,10.30
2017-05-16T23:52:52.556Z,10.30
2017-05-16T23:55:21.060Z,10.30
2017-05-16T23:57:49.559Z,10.30
